Aviation Digital Data Service (ADDS)

Output produced by TAFs form (0007 UTC 22 September 2014)
found at http://aviationweather.gov/adds/tafs/
 
KPUB 212326Z 2200/2224 11008KT P6SM SCT090 
     FM220400 VRB06KT P6SM SCT050 BKN080 
     FM221700 16009KT P6SM FEW050 SCT090 
     FM222200 11010KT P6SM FEW050 SCT120